sensor_id;sensor_type;location;lat;lon;timestamp;P1;durP1;ratioP1;P2;durP2;ratioP2
44204;SDS011;30163;42.698;23.344;2023-05-25T00:01:53;20.50;;;10.68;;
44204;SDS011;30163;42.698;23.344;2023-05-25T00:04:19;18.58;;;10.77;;
44204;SDS011;30163;42.698;23.344;2023-05-25T00:06:45;20.52;;;12.50;;
44204;SDS011;30163;42.698;23.344;2023-05-25T00:09:11;23.35;;;11.43;;
44204;SDS011;30163;42.698;23.344;2023-05-25T00:11:37;24.70;;;11.80;;
44204;SDS011;30163;42.698;23.344;2023-05-25T00:14:03;19.92;;;11.38;;
44204;SDS011;30163;42.698;23.344;2023-05-25T00:16:29;22.75;;;11.45;;
44204;SDS011;30163;42.698;23.344;2023-05-25T00:18:55;21.50;;;11.90;;
44204;SDS011;30163;42.698;23.344;2023-05-25T00:21:21;20.23;;;11.43;;
44204;SDS011;30163;42.698;23.344;2023-05-25T00:23:48;20.98;;;11.13;;
44204;SDS011;30163;42.698;23.344;2023-05-25T00:26:16;25.10;;;11.30;;
44204;SDS011;30163;42.698;23.344;2023-05-25T00:28:42;22.13;;;11.68;;
44204;SDS011;30163;42.698;23.344;2023-05-25T00:31:07;28.55;;;12.27;;
44204;SDS011;30163;42.698;23.344;2023-05-25T00:33:33;18.83;;;11.57;;
44204;SDS011;30163;42.698;23.344;2023-05-25T00:35:58;21.77;;;10.98;;
44204;SDS011;30163;42.698;23.344;2023-05-25T00:38:24;28.85;;;11.77;;
44204;SDS011;30163;42.698;23.344;2023-05-25T00:40:53;23.67;;;11.68;;
44204;SDS011;30163;42.698;23.344;2023-05-25T00:43:20;25.63;;;12.30;;
44204;SDS011;30163;42.698;23.344;2023-05-25T00:45:45;23.92;;;12.00;;
44204;SDS011;30163;42.698;23.344;2023-05-25T00:48:11;19.65;;;11.93;;
44204;SDS011;30163;42.698;23.344;2023-05-25T00:50:39;24.35;;;12.75;;
44204;SDS011;30163;42.698;23.344;2023-05-25T00:53:07;25.83;;;11.77;;
44204;SDS011;30163;42.698;23.344;2023-05-25T00:55:35;20.35;;;13.10;;
44204;SDS011;30163;42.698;23.344;2023-05-25T01:00:31;20.33;;;11.25;;
44204;SDS011;30163;42.698;23.344;2023-05-25T01:02:57;22.05;;;12.10;;
44204;SDS011;30163;42.698;23.344;2023-05-25T01:05:24;31.00;;;11.82;;
44204;SDS011;30163;42.698;23.344;2023-05-25T01:07:53;29.77;;;13.68;;
44204;SDS011;30163;42.698;23.344;2023-05-25T01:10:21;21.25;;;12.40;;
44204;SDS011;30163;42.698;23.344;2023-05-25T01:12:46;20.92;;;12.02;;
44204;SDS011;30163;42.698;23.344;2023-05-25T01:15:13;19.77;;;11.00;;
44204;SDS011;30163;42.698;23.344;2023-05-25T01:17:39;21.48;;;11.43;;
44204;SDS011;30163;42.698;23.344;2023-05-25T01:20:05;26.77;;;12.32;;
44204;SDS011;30163;42.698;23.344;2023-05-25T01:22:34;25.05;;;13.10;;
44204;SDS011;30163;42.698;23.344;2023-05-25T01:25:15;23.85;;;13.82;;
44204;SDS011;30163;42.698;23.344;2023-05-25T01:27:51;24.40;;;13.00;;
44204;SDS011;30163;42.698;23.344;2023-05-25T01:30:19;23.75;;;13.88;;
44204;SDS011;30163;42.698;23.344;2023-05-25T01:32:45;19.35;;;12.63;;
44204;SDS011;30163;42.698;23.344;2023-05-25T01:35:11;21.45;;;13.13;;
44204;SDS011;30163;42.698;23.344;2023-05-25T01:37:37;20.92;;;13.05;;
44204;SDS011;30163;42.698;23.344;2023-05-25T01:40:09;26.38;;;12.63;;
44204;SDS011;30163;42.698;23.344;2023-05-25T01:42:36;26.75;;;12.18;;
44204;SDS011;30163;42.698;23.344;2023-05-25T01:45:01;24.75;;;13.85;;
44204;SDS011;30163;42.698;23.344;2023-05-25T01:50:06;32.15;;;12.75;;
44204;SDS011;30163;42.698;23.344;2023-05-25T01:52:40;25.73;;;13.32;;
44204;SDS011;30163;42.698;23.344;2023-05-25T01:55:10;26.08;;;12.90;;
44204;SDS011;30163;42.698;23.344;2023-05-25T01:57:37;25.13;;;12.98;;
44204;SDS011;30163;42.698;23.344;2023-05-25T02:00:05;30.45;;;14.73;;
44204;SDS011;30163;42.698;23.344;2023-05-25T02:02:34;24.17;;;13.98;;
44204;SDS011;30163;42.698;23.344;2023-05-25T02:05:00;36.63;;;14.13;;
44204;SDS011;30163;42.698;23.344;2023-05-25T02:07:26;31.00;;;14.43;;
44204;SDS011;30163;42.698;23.344;2023-05-25T02:09:51;35.60;;;14.57;;
44204;SDS011;30163;42.698;23.344;2023-05-25T02:12:16;25.40;;;13.43;;
44204;SDS011;30163;42.698;23.344;2023-05-25T02:14:42;35.65;;;15.18;;
44204;SDS011;30163;42.698;23.344;2023-05-25T02:17:09;34.90;;;13.13;;
44204;SDS011;30163;42.698;23.344;2023-05-25T02:19:36;32.45;;;15.20;;
44204;SDS011;30163;42.698;23.344;2023-05-25T02:22:02;30.58;;;15.02;;
44204;SDS011;30163;42.698;23.344;2023-05-25T02:24:27;30.17;;;14.13;;
44204;SDS011;30163;42.698;23.344;2023-05-25T02:26:53;27.95;;;13.02;;
44204;SDS011;30163;42.698;23.344;2023-05-25T02:29:18;28.73;;;14.30;;
44204;SDS011;30163;42.698;23.344;2023-05-25T02:31:44;44.03;;;12.85;;
44204;SDS011;30163;42.698;23.344;2023-05-25T02:34:10;30.63;;;15.18;;
44204;SDS011;30163;42.698;23.344;2023-05-25T02:36:35;28.13;;;14.43;;
44204;SDS011;30163;42.698;23.344;2023-05-25T02:39:01;32.30;;;15.00;;
44204;SDS011;30163;42.698;23.344;2023-05-25T02:41:28;39.72;;;16.10;;
44204;SDS011;30163;42.698;23.344;2023-05-25T02:43:53;32.53;;;14.88;;
44204;SDS011;30163;42.698;23.344;2023-05-25T02:46:19;34.05;;;14.73;;
44204;SDS011;30163;42.698;23.344;2023-05-25T02:48:46;30.20;;;14.30;;
44204;SDS011;30163;42.698;23.344;2023-05-25T02:51:11;27.75;;;14.07;;
44204;SDS011;30163;42.698;23.344;2023-05-25T02:53:37;34.20;;;13.57;;
44204;SDS011;30163;42.698;23.344;2023-05-25T02:56:03;29.90;;;14.10;;
44204;SDS011;30163;42.698;23.344;2023-05-25T02:58:34;37.33;;;14.40;;
44204;SDS011;30163;42.698;23.344;2023-05-25T03:01:00;35.85;;;14.68;;
44204;SDS011;30163;42.698;23.344;2023-05-25T03:03:26;28.15;;;14.52;;
44204;SDS011;30163;42.698;23.344;2023-05-25T03:05:51;27.70;;;14.20;;
44204;SDS011;30163;42.698;23.344;2023-05-25T03:08:17;35.75;;;14.65;;
44204;SDS011;30163;42.698;23.344;2023-05-25T03:10:42;25.83;;;14.27;;
44204;SDS011;30163;42.698;23.344;2023-05-25T03:13:08;28.90;;;13.50;;
44204;SDS011;30163;42.698;23.344;2023-05-25T03:15:33;38.60;;;14.50;;
44204;SDS011;30163;42.698;23.344;2023-05-25T03:17:59;28.63;;;15.27;;
44204;SDS011;30163;42.698;23.344;2023-05-25T03:20:28;23.75;;;13.30;;
44204;SDS011;30163;42.698;23.344;2023-05-25T03:22:54;26.17;;;13.75;;
44204;SDS011;30163;42.698;23.344;2023-05-25T03:25:19;27.25;;;12.32;;
44204;SDS011;30163;42.698;23.344;2023-05-25T03:27:45;26.25;;;12.52;;
44204;SDS011;30163;42.698;23.344;2023-05-25T03:30:11;26.05;;;12.30;;
44204;SDS011;30163;42.698;23.344;2023-05-25T03:32:37;23.42;;;12.98;;
44204;SDS011;30163;42.698;23.344;2023-05-25T03:35:03;24.48;;;13.13;;
44204;SDS011;30163;42.698;23.344;2023-05-25T03:37:29;32.58;;;13.68;;
44204;SDS011;30163;42.698;23.344;2023-05-25T03:39:55;21.25;;;12.90;;
44204;SDS011;30163;42.698;23.344;2023-05-25T03:42:20;16.52;;;10.80;;
44204;SDS011;30163;42.698;23.344;2023-05-25T03:44:45;24.00;;;10.00;;
44204;SDS011;30163;42.698;23.344;2023-05-25T03:47:11;22.27;;;11.35;;
44204;SDS011;30163;42.698;23.344;2023-05-25T03:49:37;21.45;;;11.55;;
44204;SDS011;30163;42.698;23.344;2023-05-25T03:52:02;23.98;;;10.25;;
44204;SDS011;30163;42.698;23.344;2023-05-25T03:54:30;30.83;;;10.77;;
44204;SDS011;30163;42.698;23.344;2023-05-25T03:56:55;19.13;;;10.57;;
44204;SDS011;30163;42.698;23.344;2023-05-25T03:59:22;26.80;;;11.68;;
44204;SDS011;30163;42.698;23.344;2023-05-25T04:01:49;30.55;;;10.93;;
44204;SDS011;30163;42.698;23.344;2023-05-25T04:04:15;27.88;;;11.32;;
44204;SDS011;30163;42.698;23.344;2023-05-25T04:06:40;32.88;;;12.45;;
44204;SDS011;30163;42.698;23.344;2023-05-25T04:09:06;26.42;;;13.93;;
44204;SDS011;30163;42.698;23.344;2023-05-25T04:11:32;30.52;;;12.32;;
44204;SDS011;30163;42.698;23.344;2023-05-25T04:13:57;33.72;;;14.05;;
44204;SDS011;30163;42.698;23.344;2023-05-25T04:16:23;35.53;;;15.27;;
44204;SDS011;30163;42.698;23.344;2023-05-25T04:18:50;37.67;;;13.90;;
44204;SDS011;30163;42.698;23.344;2023-05-25T04:21:16;44.65;;;14.00;;
44204;SDS011;30163;42.698;23.344;2023-05-25T04:23:41;36.13;;;13.45;;
44204;SDS011;30163;42.698;23.344;2023-05-25T04:26:07;26.42;;;13.80;;
44204;SDS011;30163;42.698;23.344;2023-05-25T04:28:34;38.03;;;14.13;;
44204;SDS011;30163;42.698;23.344;2023-05-25T04:31:01;36.55;;;14.40;;
44204;SDS011;30163;42.698;23.344;2023-05-25T04:33:27;26.52;;;14.30;;
44204;SDS011;30163;42.698;23.344;2023-05-25T04:35:54;28.67;;;13.48;;
44204;SDS011;30163;42.698;23.344;2023-05-25T04:38:22;29.65;;;12.80;;
44204;SDS011;30163;42.698;23.344;2023-05-25T04:40:49;27.00;;;13.07;;
44204;SDS011;30163;42.698;23.344;2023-05-25T04:43:15;23.35;;;13.07;;
44204;SDS011;30163;42.698;23.344;2023-05-25T04:45:42;23.23;;;13.23;;
44204;SDS011;30163;42.698;23.344;2023-05-25T04:48:10;22.30;;;12.18;;
44204;SDS011;30163;42.698;23.344;2023-05-25T04:50:37;22.98;;;12.80;;
44204;SDS011;30163;42.698;23.344;2023-05-25T04:53:05;29.80;;;13.13;;
44204;SDS011;30163;42.698;23.344;2023-05-25T04:55:30;23.02;;;11.73;;
44204;SDS011;30163;42.698;23.344;2023-05-25T04:57:56;29.80;;;11.02;;
44204;SDS011;30163;42.698;23.344;2023-05-25T05:00:22;23.80;;;11.77;;
44204;SDS011;30163;42.698;23.344;2023-05-25T05:02:48;26.48;;;13.00;;
44204;SDS011;30163;42.698;23.344;2023-05-25T05:05:15;22.98;;;11.57;;
44204;SDS011;30163;42.698;23.344;2023-05-25T05:07:41;22.13;;;11.68;;
44204;SDS011;30163;42.698;23.344;2023-05-25T05:10:06;19.77;;;12.23;;
44204;SDS011;30163;42.698;23.344;2023-05-25T05:12:32;21.48;;;11.15;;
44204;SDS011;30163;42.698;23.344;2023-05-25T05:14:57;31.75;;;11.48;;
44204;SDS011;30163;42.698;23.344;2023-05-25T05:17:23;23.05;;;12.55;;
44204;SDS011;30163;42.698;23.344;2023-05-25T05:19:50;26.50;;;12.43;;
44204;SDS011;30163;42.698;23.344;2023-05-25T05:22:15;26.60;;;13.75;;
44204;SDS011;30163;42.698;23.344;2023-05-25T05:24:41;21.45;;;12.10;;
44204;SDS011;30163;42.698;23.344;2023-05-25T05:27:06;28.02;;;13.45;;
44204;SDS011;30163;42.698;23.344;2023-05-25T05:29:32;26.40;;;13.10;;
44204;SDS011;30163;42.698;23.344;2023-05-25T05:31:58;28.15;;;13.82;;
44204;SDS011;30163;42.698;23.344;2023-05-25T05:34:24;22.88;;;13.48;;
44204;SDS011;30163;42.698;23.344;2023-05-25T05:36:50;28.20;;;13.77;;
44204;SDS011;30163;42.698;23.344;2023-05-25T05:39:15;31.65;;;13.27;;
44204;SDS011;30163;42.698;23.344;2023-05-25T05:41:41;27.08;;;12.13;;
44204;SDS011;30163;42.698;23.344;2023-05-25T05:44:09;32.78;;;13.45;;
44204;SDS011;30163;42.698;23.344;2023-05-25T05:46:36;46.67;;;14.25;;
44204;SDS011;30163;42.698;23.344;2023-05-25T05:49:02;32.45;;;15.40;;
44204;SDS011;30163;42.698;23.344;2023-05-25T05:51:27;32.30;;;13.23;;
44204;SDS011;30163;42.698;23.344;2023-05-25T05:53:53;26.40;;;11.43;;
44204;SDS011;30163;42.698;23.344;2023-05-25T05:56:18;24.50;;;12.68;;
44204;SDS011;30163;42.698;23.344;2023-05-25T05:58:44;24.30;;;11.88;;
44204;SDS011;30163;42.698;23.344;2023-05-25T06:01:11;29.35;;;12.90;;
44204;SDS011;30163;42.698;23.344;2023-05-25T06:03:36;25.90;;;12.75;;
44204;SDS011;30163;42.698;23.344;2023-05-25T06:06:02;22.50;;;12.07;;
44204;SDS011;30163;42.698;23.344;2023-05-25T06:08:28;20.60;;;10.20;;
44204;SDS011;30163;42.698;23.344;2023-05-25T06:10:53;27.33;;;9.52;;
44204;SDS011;30163;42.698;23.344;2023-05-25T06:13:20;25.92;;;11.40;;
44204;SDS011;30163;42.698;23.344;2023-05-25T06:15:45;30.75;;;10.63;;
44204;SDS011;30163;42.698;23.344;2023-05-25T06:18:10;23.05;;;12.23;;
44204;SDS011;30163;42.698;23.344;2023-05-25T06:20:36;24.23;;;11.05;;
44204;SDS011;30163;42.698;23.344;2023-05-25T06:23:01;15.95;;;11.13;;
44204;SDS011;30163;42.698;23.344;2023-05-25T06:25:27;18.65;;;10.77;;
44204;SDS011;30163;42.698;23.344;2023-05-25T06:27:52;15.27;;;10.05;;
44204;SDS011;30163;42.698;23.344;2023-05-25T06:30:17;22.58;;;10.93;;
44204;SDS011;30163;42.698;23.344;2023-05-25T06:32:43;23.08;;;10.55;;
44204;SDS011;30163;42.698;23.344;2023-05-25T06:35:08;21.55;;;11.45;;
44204;SDS011;30163;42.698;23.344;2023-05-25T06:37:36;25.40;;;11.80;;
44204;SDS011;30163;42.698;23.344;2023-05-25T06:40:05;22.00;;;11.90;;
44204;SDS011;30163;42.698;23.344;2023-05-25T06:42:34;19.08;;;11.65;;
44204;SDS011;30163;42.698;23.344;2023-05-25T06:45:01;27.55;;;13.45;;
44204;SDS011;30163;42.698;23.344;2023-05-25T06:47:26;21.85;;;11.68;;
44204;SDS011;30163;42.698;23.344;2023-05-25T06:49:51;18.73;;;9.90;;
44204;SDS011;30163;42.698;23.344;2023-05-25T06:52:17;20.92;;;10.13;;
44204;SDS011;30163;42.698;23.344;2023-05-25T06:54:42;19.33;;;9.45;;
44204;SDS011;30163;42.698;23.344;2023-05-25T06:57:07;19.73;;;9.82;;
44204;SDS011;30163;42.698;23.344;2023-05-25T06:59:33;17.77;;;10.20;;
44204;SDS011;30163;42.698;23.344;2023-05-25T07:01:58;22.15;;;13.15;;
44204;SDS011;30163;42.698;23.344;2023-05-25T07:04:24;21.98;;;10.88;;
44204;SDS011;30163;42.698;23.344;2023-05-25T07:06:50;19.05;;;8.68;;
44204;SDS011;30163;42.698;23.344;2023-05-25T07:09:16;14.80;;;7.80;;
44204;SDS011;30163;42.698;23.344;2023-05-25T07:11:42;12.60;;;7.55;;
44204;SDS011;30163;42.698;23.344;2023-05-25T07:14:07;14.38;;;6.90;;
44204;SDS011;30163;42.698;23.344;2023-05-25T07:16:32;13.30;;;7.57;;
44204;SDS011;30163;42.698;23.344;2023-05-25T07:18:58;15.07;;;7.68;;
44204;SDS011;30163;42.698;23.344;2023-05-25T07:21:23;13.05;;;6.78;;
44204;SDS011;30163;42.698;23.344;2023-05-25T07:23:49;17.00;;;6.80;;
44204;SDS011;30163;42.698;23.344;2023-05-25T07:26:14;22.92;;;7.97;;
44204;SDS011;30163;42.698;23.344;2023-05-25T07:28:40;14.32;;;7.20;;
44204;SDS011;30163;42.698;23.344;2023-05-25T07:31:05;22.13;;;7.72;;
44204;SDS011;30163;42.698;23.344;2023-05-25T07:33:32;10.73;;;6.72;;
44204;SDS011;30163;42.698;23.344;2023-05-25T07:35:57;10.82;;;6.85;;
44204;SDS011;30163;42.698;23.344;2023-05-25T07:38:22;10.50;;;6.30;;
44204;SDS011;30163;42.698;23.344;2023-05-25T07:40:48;11.52;;;6.43;;
44204;SDS011;30163;42.698;23.344;2023-05-25T07:43:14;13.00;;;6.15;;
44204;SDS011;30163;42.698;23.344;2023-05-25T07:45:39;11.55;;;6.82;;
44204;SDS011;30163;42.698;23.344;2023-05-25T07:48:05;11.98;;;5.80;;
44204;SDS011;30163;42.698;23.344;2023-05-25T07:50:31;14.77;;;5.75;;
44204;SDS011;30163;42.698;23.344;2023-05-25T07:52:57;14.35;;;5.95;;
44204;SDS011;30163;42.698;23.344;2023-05-25T07:55:24;7.88;;;4.72;;
44204;SDS011;30163;42.698;23.344;2023-05-25T07:57:50;6.38;;;4.00;;
44204;SDS011;30163;42.698;23.344;2023-05-25T08:00:15;6.88;;;4.20;;
44204;SDS011;30163;42.698;23.344;2023-05-25T08:02:41;13.35;;;4.35;;
44204;SDS011;30163;42.698;23.344;2023-05-25T08:05:07;10.77;;;4.68;;
44204;SDS011;30163;42.698;23.344;2023-05-25T08:07:34;15.80;;;8.60;;
44204;SDS011;30163;42.698;23.344;2023-05-25T08:09:59;22.83;;;10.13;;
44204;SDS011;30163;42.698;23.344;2023-05-25T08:12:25;31.17;;;11.02;;
44204;SDS011;30163;42.698;23.344;2023-05-25T08:14:51;34.63;;;11.35;;
44204;SDS011;30163;42.698;23.344;2023-05-25T08:17:18;26.98;;;11.95;;
44204;SDS011;30163;42.698;23.344;2023-05-25T08:19:43;33.20;;;10.98;;
44204;SDS011;30163;42.698;23.344;2023-05-25T08:22:09;18.45;;;10.43;;
44204;SDS011;30163;42.698;23.344;2023-05-25T08:24:35;17.70;;;10.02;;
44204;SDS011;30163;42.698;23.344;2023-05-25T08:27:00;20.30;;;11.27;;
44204;SDS011;30163;42.698;23.344;2023-05-25T08:29:26;18.65;;;7.38;;
44204;SDS011;30163;42.698;23.344;2023-05-25T08:31:52;16.38;;;8.38;;
44204;SDS011;30163;42.698;23.344;2023-05-25T08:34:17;16.30;;;7.40;;
44204;SDS011;30163;42.698;23.344;2023-05-25T08:36:43;14.18;;;8.70;;
44204;SDS011;30163;42.698;23.344;2023-05-25T08:39:09;16.05;;;9.20;;
44204;SDS011;30163;42.698;23.344;2023-05-25T08:41:35;24.63;;;8.98;;
44204;SDS011;30163;42.698;23.344;2023-05-25T08:44:01;12.30;;;7.88;;
44204;SDS011;30163;42.698;23.344;2023-05-25T08:46:30;12.48;;;7.00;;
44204;SDS011;30163;42.698;23.344;2023-05-25T08:51:34;17.98;;;7.53;;
44204;SDS011;30163;42.698;23.344;2023-05-25T08:54:08;18.55;;;7.93;;
44204;SDS011;30163;42.698;23.344;2023-05-25T08:56:54;20.27;;;8.00;;
44204;SDS011;30163;42.698;23.344;2023-05-25T09:02:20;24.00;;;8.55;;
44204;SDS011;30163;42.698;23.344;2023-05-25T09:04:49;11.85;;;7.03;;
44204;SDS011;30163;42.698;23.344;2023-05-25T09:07:15;10.40;;;6.57;;
44204;SDS011;30163;42.698;23.344;2023-05-25T09:09:40;21.88;;;8.95;;
44204;SDS011;30163;42.698;23.344;2023-05-25T09:12:07;17.48;;;7.38;;
44204;SDS011;30163;42.698;23.344;2023-05-25T09:14:33;24.55;;;8.90;;
44204;SDS011;30163;42.698;23.344;2023-05-25T09:16:59;15.93;;;8.27;;
44204;SDS011;30163;42.698;23.344;2023-05-25T09:19:24;19.30;;;8.63;;
44204;SDS011;30163;42.698;23.344;2023-05-25T09:21:50;16.27;;;9.73;;
44204;SDS011;30163;42.698;23.344;2023-05-25T09:24:16;19.33;;;9.40;;
44204;SDS011;30163;42.698;23.344;2023-05-25T09:26:42;24.00;;;10.00;;
44204;SDS011;30163;42.698;23.344;2023-05-25T09:29:12;20.95;;;8.93;;
44204;SDS011;30163;42.698;23.344;2023-05-25T09:31:37;37.60;;;12.55;;
44204;SDS011;30163;42.698;23.344;2023-05-25T09:34:09;28.60;;;13.90;;
44204;SDS011;30163;42.698;23.344;2023-05-25T09:36:35;27.48;;;12.70;;
44204;SDS011;30163;42.698;23.344;2023-05-25T09:39:05;20.90;;;11.70;;
44204;SDS011;30163;42.698;23.344;2023-05-25T09:41:34;15.63;;;8.88;;
44204;SDS011;30163;42.698;23.344;2023-05-25T09:44:00;28.10;;;11.43;;
44204;SDS011;30163;42.698;23.344;2023-05-25T09:46:26;21.02;;;10.70;;
44204;SDS011;30163;42.698;23.344;2023-05-25T09:48:52;18.95;;;10.75;;
44204;SDS011;30163;42.698;23.344;2023-05-25T09:51:18;21.77;;;12.05;;
44204;SDS011;30163;42.698;23.344;2023-05-25T09:53:43;25.20;;;12.75;;
44204;SDS011;30163;42.698;23.344;2023-05-25T09:56:12;22.63;;;11.02;;
44204;SDS011;30163;42.698;23.344;2023-05-25T09:58:37;22.08;;;11.55;;
44204;SDS011;30163;42.698;23.344;2023-05-25T10:01:03;21.00;;;10.98;;
44204;SDS011;30163;42.698;23.344;2023-05-25T10:03:29;27.25;;;11.45;;
44204;SDS011;30163;42.698;23.344;2023-05-25T10:05:55;16.50;;;9.75;;
44204;SDS011;30163;42.698;23.344;2023-05-25T10:08:20;15.85;;;10.65;;
44204;SDS011;30163;42.698;23.344;2023-05-25T10:10:47;21.35;;;12.05;;
44204;SDS011;30163;42.698;23.344;2023-05-25T10:13:13;16.73;;;9.65;;
44204;SDS011;30163;42.698;23.344;2023-05-25T10:15:43;22.17;;;8.20;;
44204;SDS011;30163;42.698;23.344;2023-05-25T10:18:09;14.50;;;9.05;;
44204;SDS011;30163;42.698;23.344;2023-05-25T10:20:38;22.25;;;10.15;;
44204;SDS011;30163;42.698;23.344;2023-05-25T10:23:04;19.80;;;10.68;;
44204;SDS011;30163;42.698;23.344;2023-05-25T10:25:38;14.60;;;9.25;;
44204;SDS011;30163;42.698;23.344;2023-05-25T10:30:39;22.95;;;10.68;;
44204;SDS011;30163;42.698;23.344;2023-05-25T10:33:05;21.25;;;8.27;;
44204;SDS011;30163;42.698;23.344;2023-05-25T10:35:31;14.57;;;7.68;;
44204;SDS011;30163;42.698;23.344;2023-05-25T10:37:57;11.63;;;7.20;;
44204;SDS011;30163;42.698;23.344;2023-05-25T10:40:22;17.95;;;8.35;;
44204;SDS011;30163;42.698;23.344;2023-05-25T10:42:48;13.45;;;8.45;;
44204;SDS011;30163;42.698;23.344;2023-05-25T10:45:17;14.90;;;8.63;;
44204;SDS011;30163;42.698;23.344;2023-05-25T10:47:42;20.13;;;7.47;;
44204;SDS011;30163;42.698;23.344;2023-05-25T10:50:25;14.85;;;8.10;;
44204;SDS011;30163;42.698;23.344;2023-05-25T10:53:01;10.00;;;6.35;;
44204;SDS011;30163;42.698;23.344;2023-05-25T10:58:17;8.85;;;5.93;;
44204;SDS011;30163;42.698;23.344;2023-05-25T11:06:15;9.25;;;4.50;;
44204;SDS011;30163;42.698;23.344;2023-05-25T11:11:20;18.08;;;5.40;;
44204;SDS011;30163;42.698;23.344;2023-05-25T11:13:47;10.82;;;4.63;;
44204;SDS011;30163;42.698;23.344;2023-05-25T11:21:53;7.45;;;5.28;;
44204;SDS011;30163;42.698;23.344;2023-05-25T11:24:13;8.55;;;5.97;;
44204;SDS011;30163;42.698;23.344;2023-05-25T11:26:53;17.45;;;5.53;;
44204;SDS011;30163;42.698;23.344;2023-05-25T11:29:22;11.13;;;4.68;;
44204;SDS011;30163;42.698;23.344;2023-05-25T11:31:53;10.82;;;5.03;;
44204;SDS011;30163;42.698;23.344;2023-05-25T11:34:20;15.70;;;5.97;;
44204;SDS011;30163;42.698;23.344;2023-05-25T11:36:51;9.90;;;5.63;;
44204;SDS011;30163;42.698;23.344;2023-05-25T11:39:19;15.85;;;5.80;;
44204;SDS011;30163;42.698;23.344;2023-05-25T11:41:45;10.10;;;5.25;;
44204;SDS011;30163;42.698;23.344;2023-05-25T11:44:13;15.60;;;6.05;;
44204;SDS011;30163;42.698;23.344;2023-05-25T11:46:40;15.88;;;6.53;;
44204;SDS011;30163;42.698;23.344;2023-05-25T11:49:07;10.10;;;6.63;;
44204;SDS011;30163;42.698;23.344;2023-05-25T11:51:33;11.48;;;6.88;;
44204;SDS011;30163;42.698;23.344;2023-05-25T11:54:00;22.40;;;8.52;;
44204;SDS011;30163;42.698;23.344;2023-05-25T11:56:27;25.77;;;9.00;;
44204;SDS011;30163;42.698;23.344;2023-05-25T11:58:56;17.15;;;8.40;;
44204;SDS011;30163;42.698;23.344;2023-05-25T12:01:22;21.83;;;8.10;;
44204;SDS011;30163;42.698;23.344;2023-05-25T12:03:49;14.27;;;7.15;;
44204;SDS011;30163;42.698;23.344;2023-05-25T12:06:27;18.13;;;7.53;;
44204;SDS011;30163;42.698;23.344;2023-05-25T12:08:54;18.27;;;8.60;;
44204;SDS011;30163;42.698;23.344;2023-05-25T12:11:30;15.27;;;5.07;;
44204;SDS011;30163;42.698;23.344;2023-05-25T12:14:00;21.92;;;5.20;;
44204;SDS011;30163;42.698;23.344;2023-05-25T12:16:28;17.50;;;5.85;;
44204;SDS011;30163;42.698;23.344;2023-05-25T12:18:55;9.38;;;5.75;;
44204;SDS011;30163;42.698;23.344;2023-05-25T12:21:20;11.20;;;4.72;;
44204;SDS011;30163;42.698;23.344;2023-05-25T12:23:47;9.55;;;4.57;;
44204;SDS011;30163;42.698;23.344;2023-05-25T12:26:14;9.07;;;4.07;;
44204;SDS011;30163;42.698;23.344;2023-05-25T12:29:00;9.23;;;4.20;;
44204;SDS011;30163;42.698;23.344;2023-05-25T12:31:30;7.15;;;3.85;;
44204;SDS011;30163;42.698;23.344;2023-05-25T12:34:09;11.60;;;4.57;;
44204;SDS011;30163;42.698;23.344;2023-05-25T12:36:46;10.13;;;4.45;;
44204;SDS011;30163;42.698;23.344;2023-05-25T12:39:13;16.73;;;3.97;;
44204;SDS011;30163;42.698;23.344;2023-05-25T12:41:46;12.23;;;3.60;;
44204;SDS011;30163;42.698;23.344;2023-05-25T12:44:56;5.32;;;3.35;;
44204;SDS011;30163;42.698;23.344;2023-05-25T12:47:13;5.25;;;3.60;;
44204;SDS011;30163;42.698;23.344;2023-05-25T12:49:43;15.88;;;3.75;;
44204;SDS011;30163;42.698;23.344;2023-05-25T12:52:10;4.13;;;2.55;;
44204;SDS011;30163;42.698;23.344;2023-05-25T12:54:55;4.38;;;2.80;;
44204;SDS011;30163;42.698;23.344;2023-05-25T12:57:21;5.47;;;3.08;;
44204;SDS011;30163;42.698;23.344;2023-05-25T12:59:46;5.85;;;3.03;;
44204;SDS011;30163;42.698;23.344;2023-05-25T13:02:12;8.13;;;2.92;;
44204;SDS011;30163;42.698;23.344;2023-05-25T13:04:39;3.80;;;2.28;;
44204;SDS011;30163;42.698;23.344;2023-05-25T13:07:07;12.02;;;3.05;;
44204;SDS011;30163;42.698;23.344;2023-05-25T13:09:33;8.77;;;2.85;;
44204;SDS011;30163;42.698;23.344;2023-05-25T13:11:58;4.68;;;2.60;;
44204;SDS011;30163;42.698;23.344;2023-05-25T13:14:26;7.50;;;2.88;;
44204;SDS011;30163;42.698;23.344;2023-05-25T13:16:52;5.65;;;2.45;;
44204;SDS011;30163;42.698;23.344;2023-05-25T13:19:19;4.78;;;2.42;;
44204;SDS011;30163;42.698;23.344;2023-05-25T13:21:45;9.32;;;2.67;;
44204;SDS011;30163;42.698;23.344;2023-05-25T13:24:13;9.93;;;2.60;;
44204;SDS011;30163;42.698;23.344;2023-05-25T13:26:38;6.03;;;2.83;;
44204;SDS011;30163;42.698;23.344;2023-05-25T13:29:04;9.70;;;2.63;;
44204;SDS011;30163;42.698;23.344;2023-05-25T13:31:29;5.72;;;2.15;;
44204;SDS011;30163;42.698;23.344;2023-05-25T13:33:58;7.25;;;2.40;;
44204;SDS011;30163;42.698;23.344;2023-05-25T13:36:24;6.32;;;2.08;;
44204;SDS011;30163;42.698;23.344;2023-05-25T13:38:49;8.77;;;2.67;;
44204;SDS011;30163;42.698;23.344;2023-05-25T13:41:15;3.03;;;2.17;;
44204;SDS011;30163;42.698;23.344;2023-05-25T13:43:42;4.00;;;2.35;;
44204;SDS011;30163;42.698;23.344;2023-05-25T13:46:07;8.13;;;2.65;;
44204;SDS011;30163;42.698;23.344;2023-05-25T13:48:33;5.55;;;2.63;;
44204;SDS011;30163;42.698;23.344;2023-05-25T13:50:58;3.88;;;2.42;;
44204;SDS011;30163;42.698;23.344;2023-05-25T13:53:24;4.80;;;2.83;;
44204;SDS011;30163;42.698;23.344;2023-05-25T13:55:49;11.65;;;2.47;;
44204;SDS011;30163;42.698;23.344;2023-05-25T13:58:15;7.43;;;2.60;;
44204;SDS011;30163;42.698;23.344;2023-05-25T14:00:40;3.42;;;2.60;;
44204;SDS011;30163;42.698;23.344;2023-05-25T14:03:05;4.32;;;2.13;;
44204;SDS011;30163;42.698;23.344;2023-05-25T14:05:31;3.30;;;2.22;;
44204;SDS011;30163;42.698;23.344;2023-05-25T14:07:56;6.20;;;2.83;;
44204;SDS011;30163;42.698;23.344;2023-05-25T14:10:24;5.13;;;2.42;;
44204;SDS011;30163;42.698;23.344;2023-05-25T14:12:50;10.00;;;2.45;;
44204;SDS011;30163;42.698;23.344;2023-05-25T14:15:15;4.85;;;2.47;;
44204;SDS011;30163;42.698;23.344;2023-05-25T14:17:41;7.32;;;2.35;;
44204;SDS011;30163;42.698;23.344;2023-05-25T14:20:06;8.00;;;3.25;;
44204;SDS011;30163;42.698;23.344;2023-05-25T14:22:32;8.85;;;2.88;;
44204;SDS011;30163;42.698;23.344;2023-05-25T14:24:57;4.45;;;2.35;;
44204;SDS011;30163;42.698;23.344;2023-05-25T14:27:23;5.72;;;2.58;;
44204;SDS011;30163;42.698;23.344;2023-05-25T14:29:49;3.13;;;2.30;;
44204;SDS011;30163;42.698;23.344;2023-05-25T14:32:15;7.70;;;2.72;;
44204;SDS011;30163;42.698;23.344;2023-05-25T14:34:41;6.72;;;2.65;;
44204;SDS011;30163;42.698;23.344;2023-05-25T14:37:07;5.80;;;2.78;;
44204;SDS011;30163;42.698;23.344;2023-05-25T14:39:33;2.70;;;2.25;;
44204;SDS011;30163;42.698;23.344;2023-05-25T14:42:00;4.35;;;2.90;;
44204;SDS011;30163;42.698;23.344;2023-05-25T14:44:28;5.07;;;2.85;;